sensor_id;sensor_type;location;lat;lon;timestamp;pressure;altitude;pressure_sealevel;temperature;humidity
6514;BME280;3290;47.716;9.070;2022-09-23T00:00:44;97193.00;;;9.40;100.00
6514;BME280;3290;47.716;9.070;2022-09-23T00:03:10;97186.75;;;9.47;100.00
6514;BME280;3290;47.716;9.070;2022-09-23T00:05:36;97176.88;;;9.68;100.00
6514;BME280;3290;47.716;9.070;2022-09-23T00:08:06;97180.91;;;9.45;100.00
6514;BME280;3290;47.716;9.070;2022-09-23T00:10:35;97184.53;;;9.31;100.00
6514;BME280;3290;47.716;9.070;2022-09-23T00:13:01;97183.31;;;9.27;100.00
6514;BME280;3290;47.716;9.070;2022-09-23T00:15:26;97193.94;;;9.19;100.00
6514;BME280;3290;47.716;9.070;2022-09-23T00:17:54;97189.97;;;9.36;100.00
6514;BME280;3290;47.716;9.070;2022-09-23T00:20:19;97190.75;;;9.30;100.00
6514;BME280;3290;47.716;9.070;2022-09-23T00:22:45;97187.75;;;9.33;100.00
6514;BME280;3290;47.716;9.070;2022-09-23T00:25:11;97189.53;;;9.26;100.00
6514;BME280;3290;47.716;9.070;2022-09-23T00:27:37;97196.19;;;9.35;100.00
6514;BME280;3290;47.716;9.070;2022-09-23T00:30:04;97193.38;;;9.24;100.00
6514;BME280;3290;47.716;9.070;2022-09-23T00:32:30;97194.56;;;9.21;100.00
6514;BME280;3290;47.716;9.070;2022-09-23T00:34:55;97189.72;;;9.18;100.00
6514;BME280;3290;47.716;9.070;2022-09-23T00:37:21;97191.13;;;9.15;100.00
6514;BME280;3290;47.716;9.070;2022-09-23T00:39:46;97187.72;;;9.14;100.00
6514;BME280;3290;47.716;9.070;2022-09-23T00:42:18;97188.53;;;9.34;100.00
6514;BME280;3290;47.716;9.070;2022-09-23T00:44:58;97187.13;;;9.31;100.00
6514;BME280;3290;47.716;9.070;2022-09-23T00:47:31;97192.75;;;9.28;100.00
6514;BME280;3290;47.716;9.070;2022-09-23T00:52:46;97178.84;;;9.15;100.00
6514;BME280;3290;47.716;9.070;2022-09-23T00:55:17;97183.94;;;9.29;100.00
6514;BME280;3290;47.716;9.070;2022-09-23T00:57:44;97179.88;;;9.27;100.00
6514;BME280;3290;47.716;9.070;2022-09-23T01:00:10;97179.47;;;9.23;100.00
6514;BME280;3290;47.716;9.070;2022-09-23T01:02:36;97175.84;;;9.12;100.00
6514;BME280;3290;47.716;9.070;2022-09-23T01:05:04;97179.63;;;9.03;100.00
6514;BME280;3290;47.716;9.070;2022-09-23T01:07:30;97173.63;;;9.15;100.00
6514;BME280;3290;47.716;9.070;2022-09-23T01:09:56;97175.03;;;9.11;100.00
6514;BME280;3290;47.716;9.070;2022-09-23T01:31:31;97169.16;;;8.90;100.00
6514;BME280;3290;47.716;9.070;2022-09-23T01:34:09;97165.53;;;8.78;100.00
6514;BME280;3290;47.716;9.070;2022-09-23T01:36:45;97173.97;;;8.80;100.00
6514;BME280;3290;47.716;9.070;2022-09-23T01:39:22;97170.88;;;8.57;100.00
6514;BME280;3290;47.716;9.070;2022-09-23T01:42:00;97169.72;;;8.66;100.00
6514;BME280;3290;47.716;9.070;2022-09-23T01:47:16;97163.94;;;8.90;100.00
6514;BME280;3290;47.716;9.070;2022-09-23T01:49:59;97164.56;;;8.92;100.00
6514;BME280;3290;47.716;9.070;2022-09-23T01:52:37;97163.31;;;8.81;100.00
6514;BME280;3290;47.716;9.070;2022-09-23T01:55:09;97165.75;;;8.83;100.00
6514;BME280;3290;47.716;9.070;2022-09-23T01:57:39;97165.53;;;8.78;100.00
6514;BME280;3290;47.716;9.070;2022-09-23T02:00:12;97167.69;;;8.62;100.00
6514;BME280;3290;47.716;9.070;2022-09-23T02:02:53;97162.81;;;8.46;100.00
6514;BME280;3290;47.716;9.070;2022-09-23T02:05:49;97166.63;;;8.43;100.00
6514;BME280;3290;47.716;9.070;2022-09-23T02:08:19;97160.19;;;8.46;100.00
6514;BME280;3290;47.716;9.070;2022-09-23T02:10:47;97162.84;;;8.52;100.00
6514;BME280;3290;47.716;9.070;2022-09-23T02:13:17;97169.81;;;8.39;100.00
6514;BME280;3290;47.716;9.070;2022-09-23T02:15:50;97156.09;;;8.24;100.00
6514;BME280;3290;47.716;9.070;2022-09-23T02:18:37;97162.72;;;8.27;100.00
6514;BME280;3290;47.716;9.070;2022-09-23T02:21:07;97163.66;;;8.13;100.00
6514;BME280;3290;47.716;9.070;2022-09-23T02:23:52;97157.25;;;8.15;100.00
6514;BME280;3290;47.716;9.070;2022-09-23T02:26:33;97160.16;;;8.39;100.00
6514;BME280;3290;47.716;9.070;2022-09-23T02:29:19;97158.69;;;8.18;100.00
6514;BME280;3290;47.716;9.070;2022-09-23T02:32:07;97153.69;;;8.23;100.00
6514;BME280;3290;47.716;9.070;2022-09-23T02:35:04;97148.84;;;8.20;100.00
6514;BME280;3290;47.716;9.070;2022-09-23T02:37:45;97146.81;;;8.15;100.00
6514;BME280;3290;47.716;9.070;2022-09-23T02:42:53;97147.13;;;8.06;100.00
6514;BME280;3290;47.716;9.070;2022-09-23T02:45:22;97148.47;;;8.23;100.00
6514;BME280;3290;47.716;9.070;2022-09-23T02:47:52;97152.84;;;8.16;100.00
6514;BME280;3290;47.716;9.070;2022-09-23T02:50:19;97150.66;;;8.19;100.00
6514;BME280;3290;47.716;9.070;2022-09-23T02:52:46;97148.63;;;8.15;100.00
6514;BME280;3290;47.716;9.070;2022-09-23T02:55:16;97145.03;;;8.16;100.00
6514;BME280;3290;47.716;9.070;2022-09-23T02:57:42;97146.84;;;8.22;100.00
6514;BME280;3290;47.716;9.070;2022-09-23T03:00:09;97131.91;;;8.09;100.00
6514;BME280;3290;47.716;9.070;2022-09-23T03:02:51;97139.88;;;7.95;100.00
6514;BME280;3290;47.716;9.070;2022-09-23T03:05:30;97135.16;;;8.11;100.00
6514;BME280;3290;47.716;9.070;2022-09-23T03:13:25;97136.88;;;7.98;100.00
6514;BME280;3290;47.716;9.070;2022-09-23T03:19:08;97137.31;;;8.08;100.00
6514;BME280;3290;47.716;9.070;2022-09-23T03:21:44;97148.06;;;8.26;100.00
6514;BME280;3290;47.716;9.070;2022-09-23T03:24:11;97144.47;;;8.27;100.00
6514;BME280;3290;47.716;9.070;2022-09-23T03:26:44;97145.66;;;8.24;100.00
6514;BME280;3290;47.716;9.070;2022-09-23T03:29:11;97146.44;;;8.18;100.00
6514;BME280;3290;47.716;9.070;2022-09-23T03:31:38;97152.06;;;8.22;100.00
6514;BME280;3290;47.716;9.070;2022-09-23T03:34:12;97152.44;;;8.12;100.00
6514;BME280;3290;47.716;9.070;2022-09-23T03:36:45;97155.66;;;8.14;100.00
6514;BME280;3290;47.716;9.070;2022-09-23T03:39:30;97153.16;;;8.06;100.00
6514;BME280;3290;47.716;9.070;2022-09-23T03:42:03;97154.44;;;8.17;100.00
6514;BME280;3290;47.716;9.070;2022-09-23T03:44:34;97151.56;;;8.05;100.00
6514;BME280;3290;47.716;9.070;2022-09-23T03:47:02;97158.91;;;8.23;100.00
6514;BME280;3290;47.716;9.070;2022-09-23T03:49:32;97152.03;;;8.15;100.00
6514;BME280;3290;47.716;9.070;2022-09-23T03:51:59;97151.06;;;8.23;100.00
6514;BME280;3290;47.716;9.070;2022-09-23T03:54:25;97153.84;;;8.15;100.00
6514;BME280;3290;47.716;9.070;2022-09-23T03:56:54;97146.34;;;8.05;100.00
6514;BME280;3290;47.716;9.070;2022-09-23T03:59:22;97152.94;;;8.01;100.00
6514;BME280;3290;47.716;9.070;2022-09-23T04:01:48;97144.28;;;8.01;100.00
6514;BME280;3290;47.716;9.070;2022-09-23T04:04:14;97144.03;;;7.90;100.00
6514;BME280;3290;47.716;9.070;2022-09-23T04:06:40;97141.81;;;7.87;100.00
6514;BME280;3290;47.716;9.070;2022-09-23T04:09:06;97138.00;;;7.89;100.00
6514;BME280;3290;47.716;9.070;2022-09-23T04:11:31;97133.19;;;7.86;100.00
6514;BME280;3290;47.716;9.070;2022-09-23T04:13:57;97145.69;;;7.97;100.00
6514;BME280;3290;47.716;9.070;2022-09-23T04:16:23;97133.63;;;7.96;100.00
6514;BME280;3290;47.716;9.070;2022-09-23T04:18:49;97129.19;;;7.90;100.00
6514;BME280;3290;47.716;9.070;2022-09-23T04:21:15;97131.31;;;7.74;100.00
6514;BME280;3290;47.716;9.070;2022-09-23T04:23:40;97127.50;;;7.76;100.00
6514;BME280;3290;47.716;9.070;2022-09-23T04:26:06;97127.56;;;7.89;100.00
6514;BME280;3290;47.716;9.070;2022-09-23T04:28:32;97127.88;;;8.07;100.00
6514;BME280;3290;47.716;9.070;2022-09-23T04:30:57;97131.19;;;8.22;100.00
6514;BME280;3290;47.716;9.070;2022-09-23T04:33:23;97127.25;;;7.98;100.00
6514;BME280;3290;47.716;9.070;2022-09-23T04:35:52;97126.88;;;8.01;100.00
6514;BME280;3290;47.716;9.070;2022-09-23T04:38:18;97127.25;;;7.98;100.00
6514;BME280;3290;47.716;9.070;2022-09-23T04:40:43;97127.06;;;8.00;100.00
6514;BME280;3290;47.716;9.070;2022-09-23T04:43:09;97133.63;;;7.96;100.00
6514;BME280;3290;47.716;9.070;2022-09-23T04:45:34;97129.44;;;7.95;100.00
6514;BME280;3290;47.716;9.070;2022-09-23T04:48:00;97137.41;;;7.87;100.00
6514;BME280;3290;47.716;9.070;2022-09-23T04:50:26;97129.38;;;7.82;100.00
6514;BME280;3290;47.716;9.070;2022-09-23T04:52:52;97128.94;;;7.79;100.00
6514;BME280;3290;47.716;9.070;2022-09-23T04:55:18;97132.78;;;7.56;100.00
6514;BME280;3290;47.716;9.070;2022-09-23T04:57:43;97131.38;;;7.53;100.00
6514;BME280;3290;47.716;9.070;2022-09-23T05:00:10;97141.88;;;7.93;100.00
6514;BME280;3290;47.716;9.070;2022-09-23T05:02:46;97146.75;;;8.09;100.00
6514;BME280;3290;47.716;9.070;2022-09-23T05:05:12;97157.25;;;8.15;100.00
6514;BME280;3290;47.716;9.070;2022-09-23T05:07:38;97149.50;;;8.01;100.00
6514;BME280;3290;47.716;9.070;2022-09-23T05:10:05;97147.50;;;7.97;100.00
6514;BME280;3290;47.716;9.070;2022-09-23T05:12:30;97156.81;;;7.78;100.00
6514;BME280;3290;47.716;9.070;2022-09-23T05:14:56;97147.88;;;7.94;100.00
6514;BME280;3290;47.716;9.070;2022-09-23T05:17:21;97147.50;;;8.03;100.00
6514;BME280;3290;47.716;9.070;2022-09-23T05:19:47;97146.66;;;7.90;100.00
6514;BME280;3290;47.716;9.070;2022-09-23T05:22:12;97154.72;;;8.01;100.00
6514;BME280;3290;47.716;9.070;2022-09-23T05:24:37;97160.72;;;7.95;100.00
6514;BME280;3290;47.716;9.070;2022-09-23T05:27:03;97149.63;;;7.87;100.00
6514;BME280;3290;47.716;9.070;2022-09-23T05:29:31;97155.50;;;7.95;100.00
6514;BME280;3290;47.716;9.070;2022-09-23T05:31:56;97148.38;;;8.10;100.00
6514;BME280;3290;47.716;9.070;2022-09-23T05:34:22;97156.69;;;8.20;100.00
6514;BME280;3290;47.716;9.070;2022-09-23T05:36:48;97160.50;;;8.24;100.00
6514;BME280;3290;47.716;9.070;2022-09-23T05:39:14;97159.38;;;8.39;100.00
6514;BME280;3290;47.716;9.070;2022-09-23T05:41:39;97154.19;;;8.45;100.00
6514;BME280;3290;47.716;9.070;2022-09-23T05:44:05;97163.38;;;8.35;100.00
6514;BME280;3290;47.716;9.070;2022-09-23T05:46:31;97153.22;;;8.59;100.00
6514;BME280;3290;47.716;9.070;2022-09-23T05:48:58;97161.06;;;8.59;100.00
6514;BME280;3290;47.716;9.070;2022-09-23T05:51:25;97159.91;;;8.81;100.00
6514;BME280;3290;47.716;9.070;2022-09-23T05:53:52;97167.22;;;9.05;100.00
6514;BME280;3290;47.716;9.070;2022-09-23T05:56:20;97166.41;;;9.11;100.00
6514;BME280;3290;47.716;9.070;2022-09-23T05:58:51;97161.59;;;9.33;100.00
6514;BME280;3290;47.716;9.070;2022-09-23T06:01:19;97166.41;;;9.11;100.00
6514;BME280;3290;47.716;9.070;2022-09-23T06:03:52;97164.81;;;9.22;100.00
6514;BME280;3290;47.716;9.070;2022-09-23T06:06:20;97167.63;;;9.34;100.00
6514;BME280;3290;47.716;9.070;2022-09-23T06:08:50;97172.44;;;9.30;100.00
6514;BME280;3290;47.716;9.070;2022-09-23T06:11:15;97157.53;;;10.01;100.00
6514;BME280;3290;47.716;9.070;2022-09-23T06:13:41;97171.25;;;10.53;98.93
6514;BME280;3290;47.716;9.070;2022-09-23T06:16:09;97166.19;;;10.65;98.08
6514;BME280;3290;47.716;9.070;2022-09-23T06:18:40;97171.44;;;10.58;98.63
6514;BME280;3290;47.716;9.070;2022-09-23T06:21:06;97168.41;;;10.61;98.79
6514;BME280;3290;47.716;9.070;2022-09-23T06:23:31;97163.84;;;11.18;96.44
6514;BME280;3290;47.716;9.070;2022-09-23T06:26:05;97168.50;;;11.16;95.20
6514;BME280;3290;47.716;9.070;2022-09-23T06:28:32;97157.00;;;11.17;95.50
6514;BME280;3290;47.716;9.070;2022-09-23T06:30:59;97167.78;;;11.88;91.98
6514;BME280;3290;47.716;9.070;2022-09-23T06:33:25;97164.25;;;11.76;90.73
6514;BME280;3290;47.716;9.070;2022-09-23T06:35:58;97155.53;;;12.18;90.76
6514;BME280;3290;47.716;9.070;2022-09-23T06:38:25;97166.88;;;11.76;92.37
6514;BME280;3290;47.716;9.070;2022-09-23T06:40:52;97163.88;;;12.15;91.61
6514;BME280;3290;47.716;9.070;2022-09-23T06:43:19;97165.34;;;12.29;88.55
6514;BME280;3290;47.716;9.070;2022-09-23T06:45:46;97167.81;;;12.24;90.45
6514;BME280;3290;47.716;9.070;2022-09-23T06:48:11;97166.19;;;12.40;89.44
6514;BME280;3290;47.716;9.070;2022-09-23T06:50:36;97168.69;;;12.53;89.47
6514;BME280;3290;47.716;9.070;2022-09-23T06:53:02;97168.81;;;12.76;88.16
6514;BME280;3290;47.716;9.070;2022-09-23T06:55:28;97167.97;;;13.22;86.80
6514;BME280;3290;47.716;9.070;2022-09-23T06:57:55;97164.31;;;13.87;84.98
6514;BME280;3290;47.716;9.070;2022-09-23T07:00:22;97168.66;;;13.70;86.36
6514;BME280;3290;47.716;9.070;2022-09-23T07:02:47;97171.34;;;13.00;87.56
6514;BME280;3290;47.716;9.070;2022-09-23T07:05:13;97181.81;;;12.89;89.36
6514;BME280;3290;47.716;9.070;2022-09-23T07:07:44;97175.25;;;12.80;91.25
6514;BME280;3290;47.716;9.070;2022-09-23T07:10:10;97183.75;;;13.11;89.28
6514;BME280;3290;47.716;9.070;2022-09-23T07:12:36;97174.63;;;13.65;87.96
6514;BME280;3290;47.716;9.070;2022-09-23T07:15:02;97179.31;;;13.63;87.07
6514;BME280;3290;47.716;9.070;2022-09-23T07:17:28;97173.38;;;13.79;86.81
6514;BME280;3290;47.716;9.070;2022-09-23T07:19:54;97171.97;;;14.56;82.90
6514;BME280;3290;47.716;9.070;2022-09-23T07:22:21;97168.44;;;14.51;83.10
6514;BME280;3290;47.716;9.070;2022-09-23T07:24:46;97171.66;;;14.41;80.10
6514;BME280;3290;47.716;9.070;2022-09-23T07:27:12;97168.81;;;15.10;77.64
6514;BME280;3290;47.716;9.070;2022-09-23T07:29:43;97171.22;;;14.83;76.60
6514;BME280;3290;47.716;9.070;2022-09-23T07:32:09;97165.22;;;15.43;74.73
6514;BME280;3290;47.716;9.070;2022-09-23T07:34:35;97167.53;;;15.84;72.25
6514;BME280;3290;47.716;9.070;2022-09-23T07:37:00;97164.22;;;15.93;72.79
6514;BME280;3290;47.716;9.070;2022-09-23T07:39:27;97162.25;;;15.40;75.60
6514;BME280;3290;47.716;9.070;2022-09-23T07:41:52;97168.91;;;15.26;77.86
6514;BME280;3290;47.716;9.070;2022-09-23T07:44:17;97166.06;;;15.44;77.03
6514;BME280;3290;47.716;9.070;2022-09-23T07:46:46;97176.88;;;15.15;76.95
6514;BME280;3290;47.716;9.070;2022-09-23T07:49:12;97171.91;;;13.95;82.43
6514;BME280;3290;47.716;9.070;2022-09-23T07:51:39;97173.97;;;14.27;83.01
6514;BME280;3290;47.716;9.070;2022-09-23T07:54:08;97170.38;;;14.94;80.32
6514;BME280;3290;47.716;9.070;2022-09-23T07:56:35;97164.59;;;15.36;77.67
6514;BME280;3290;47.716;9.070;2022-09-23T07:59:01;97160.81;;;14.77;78.33
6514;BME280;3290;47.716;9.070;2022-09-23T08:01:37;97160.75;;;16.42;73.99
6514;BME280;3290;47.716;9.070;2022-09-23T08:04:09;97156.69;;;15.85;73.89
6514;BME280;3290;47.716;9.070;2022-09-23T08:06:39;97159.13;;;16.41;73.34
6514;BME280;3290;47.716;9.070;2022-09-23T08:09:06;97156.94;;;16.00;75.70
6514;BME280;3290;47.716;9.070;2022-09-23T08:11:31;97157.91;;;15.94;76.96
6514;BME280;3290;47.716;9.070;2022-09-23T08:13:57;97164.63;;;17.19;71.37
6514;BME280;3290;47.716;9.070;2022-09-23T08:16:22;97165.25;;;16.83;73.81
6514;BME280;3290;47.716;9.070;2022-09-23T08:18:48;97165.22;;;17.26;70.66
6514;BME280;3290;47.716;9.070;2022-09-23T08:21:18;97153.34;;;17.91;68.00
6514;BME280;3290;47.716;9.070;2022-09-23T08:23:44;97157.91;;;18.00;67.19
6514;BME280;3290;47.716;9.070;2022-09-23T08:26:10;97171.78;;;17.45;69.31
6514;BME280;3290;47.716;9.070;2022-09-23T08:28:35;97166.41;;;17.66;69.80
6514;BME280;3290;47.716;9.070;2022-09-23T08:31:01;97158.50;;;17.76;69.10
6514;BME280;3290;47.716;9.070;2022-09-23T08:33:26;97171.56;;;17.04;72.32
6514;BME280;3290;47.716;9.070;2022-09-23T08:35:58;97167.16;;;16.67;76.33
6514;BME280;3290;47.716;9.070;2022-09-23T08:38:24;97166.41;;;16.71;75.19
6514;BME280;3290;47.716;9.070;2022-09-23T08:40:49;97170.69;;;16.35;77.28
6514;BME280;3290;47.716;9.070;2022-09-23T08:43:24;97168.63;;;16.04;77.92
6514;BME280;3290;47.716;9.070;2022-09-23T08:45:51;97166.69;;;15.83;79.90
6514;BME280;3290;47.716;9.070;2022-09-23T08:48:32;97162.22;;;16.00;79.05
6514;BME280;3290;47.716;9.070;2022-09-23T08:51:07;97163.06;;;16.38;79.36
6514;BME280;3290;47.716;9.070;2022-09-23T08:53:36;97160.06;;;16.51;78.72
6514;BME280;3290;47.716;9.070;2022-09-23T09:01:52;97152.44;;;16.01;81.97
6514;BME280;3290;47.716;9.070;2022-09-23T09:04:30;97160.44;;;16.05;82.22
6514;BME280;3290;47.716;9.070;2022-09-23T09:12:36;97166.06;;;15.44;84.22
6514;BME280;3290;47.716;9.070;2022-09-23T09:15:17;97167.28;;;16.55;79.06
6514;BME280;3290;47.716;9.070;2022-09-23T09:23:21;97154.78;;;16.51;79.96
6514;BME280;3290;47.716;9.070;2022-09-23T09:25:53;97152.47;;;17.23;76.01
6514;BME280;3290;47.716;9.070;2022-09-23T09:28:32;97150.91;;;17.53;75.03
6514;BME280;3290;47.716;9.070;2022-09-23T09:31:01;97134.28;;;17.99;73.21
6514;BME280;3290;47.716;9.070;2022-09-23T09:33:45;97128.84;;;18.61;69.99
6514;BME280;3290;47.716;9.070;2022-09-23T09:36:32;97131.94;;;18.38;68.30
6514;BME280;3290;47.716;9.070;2022-09-23T09:39:01;97127.56;;;18.17;70.05
6514;BME280;3290;47.716;9.070;2022-09-23T09:41:27;97119.94;;;18.91;67.56
6514;BME280;3290;47.716;9.070;2022-09-23T09:43:56;97112.59;;;19.08;64.94
6514;BME280;3290;47.716;9.070;2022-09-23T09:46:45;97115.53;;;19.31;66.35
6514;BME280;3290;47.716;9.070;2022-09-23T09:49:21;97111.84;;;19.57;63.32
6514;BME280;3290;47.716;9.070;2022-09-23T09:52:22;97108.78;;;18.94;66.62
6514;BME280;3290;47.716;9.070;2022-09-23T09:54:51;97102.00;;;20.07;61.65
6514;BME280;3290;47.716;9.070;2022-09-23T09:59:52;97098.66;;;20.69;59.71
6514;BME280;3290;47.716;9.070;2022-09-23T10:02:24;97091.28;;;20.37;59.89
6514;BME280;3290;47.716;9.070;2022-09-23T10:05:00;97088.88;;;20.40;60.82
6514;BME280;3290;47.716;9.070;2022-09-23T10:07:29;97090.28;;;20.18;61.86
6514;BME280;3290;47.716;9.070;2022-09-23T10:09:54;97081.78;;;20.16;60.17
6514;BME280;3290;47.716;9.070;2022-09-23T10:12:22;97077.97;;;20.37;59.91
6514;BME280;3290;47.716;9.070;2022-09-23T10:14:50;97080.75;;;19.97;60.89
6514;BME280;3290;47.716;9.070;2022-09-23T10:17:34;97083.19;;;20.66;59.67
6514;BME280;3290;47.716;9.070;2022-09-23T10:20:05;97087.72;;;20.76;62.16
6514;BME280;3290;47.716;9.070;2022-09-23T10:22:33;97072.06;;;21.12;58.42
6514;BME280;3290;47.716;9.070;2022-09-23T10:25:03;97079.47;;;20.72;60.51
6514;BME280;3290;47.716;9.070;2022-09-23T10:27:33;97076.28;;;20.70;61.48
6514;BME280;3290;47.716;9.070;2022-09-23T10:30:23;97076.81;;;20.57;61.68
6514;BME280;3290;47.716;9.070;2022-09-23T10:32:51;97069.41;;;20.54;60.24
6514;BME280;3290;47.716;9.070;2022-09-23T10:35:23;97074.59;;;20.02;61.60
6514;BME280;3290;47.716;9.070;2022-09-23T10:37:53;97068.41;;;20.31;64.29
6514;BME280;3290;47.716;9.070;2022-09-23T10:40:28;97065.84;;;19.91;64.01
6514;BME280;3290;47.716;9.070;2022-09-23T10:49:48;97065.47;;;20.32;59.77
6514;BME280;3290;47.716;9.070;2022-09-23T10:58:47;97046.47;;;21.49;56.77
6514;BME280;3290;47.716;9.070;2022-09-23T11:24:07;97025.41;;;22.27;55.92
6514;BME280;3290;47.716;9.070;2022-09-23T11:27:13;97015.03;;;22.67;53.89
6514;BME280;3290;47.716;9.070;2022-09-23T11:33:05;97004.94;;;22.83;56.34
6514;BME280;3290;47.716;9.070;2022-09-23T11:35:42;97017.28;;;22.19;56.18
6514;BME280;3290;47.716;9.070;2022-09-23T11:38:42;97000.25;;;22.33;56.17
6514;BME280;3290;47.716;9.070;2022-09-23T11:41:29;97001.19;;;21.44;58.06
6514;BME280;3290;47.716;9.070;2022-09-23T11:44:13;97004.91;;;21.43;58.07
6514;BME280;3290;47.716;9.070;2022-09-23T11:46:47;96996.00;;;21.25;58.86
6514;BME280;3290;47.716;9.070;2022-09-23T11:49:31;96985.88;;;22.29;56.41
6514;BME280;3290;47.716;9.070;2022-09-23T11:52:30;96981.97;;;22.45;57.63
6514;BME280;3290;47.716;9.070;2022-09-23T11:57:48;96976.00;;;22.90;55.59
6514;BME280;3290;47.716;9.070;2022-09-23T12:00:21;96961.31;;;23.05;54.20
6514;BME280;3290;47.716;9.070;2022-09-23T12:05:57;96964.84;;;23.01;53.39
6514;BME280;3290;47.716;9.070;2022-09-23T12:08:34;96969.56;;;22.54;54.56
6514;BME280;3290;47.716;9.070;2022-09-23T12:26:50;96949.38;;;24.06;49.47
6514;BME280;3290;47.716;9.070;2022-09-23T12:29:18;96940.94;;;23.99;48.65
6514;BME280;3290;47.716;9.070;2022-09-23T12:31:44;96930.56;;;24.59;49.93
6514;BME280;3290;47.716;9.070;2022-09-23T12:34:25;96931.00;;;24.40;46.41
6514;BME280;3290;47.716;9.070;2022-09-23T12:36:52;96933.13;;;24.64;46.23
6514;BME280;3290;47.716;9.070;2022-09-23T12:39:37;96926.13;;;24.42;46.61
6514;BME280;3290;47.716;9.070;2022-09-23T12:42:17;96925.09;;;24.64;46.76
6514;BME280;3290;47.716;9.070;2022-09-23T12:44:46;96918.31;;;24.18;47.25
6514;BME280;3290;47.716;9.070;2022-09-23T12:49:50;96917.75;;;24.56;48.17
6514;BME280;3290;47.716;9.070;2022-09-23T12:54:46;96910.28;;;24.05;46.77
6514;BME280;3290;47.716;9.070;2022-09-23T13:02:33;96891.22;;;24.68;44.11
6514;BME280;3290;47.716;9.070;2022-09-23T13:05:21;96885.81;;;24.82;46.53
6514;BME280;3290;47.716;9.070;2022-09-23T13:08:08;96890.75;;;23.91;44.66
6514;BME280;3290;47.716;9.070;2022-09-23T13:10:47;96877.81;;;24.47;46.11
6514;BME280;3290;47.716;9.070;2022-09-23T13:13:23;96870.06;;;24.45;46.21
6514;BME280;3290;47.716;9.070;2022-09-23T13:15:51;96874.53;;;24.23;45.46
6514;BME280;3290;47.716;9.070;2022-09-23T13:20:53;96868.47;;;25.01;46.65
6514;BME280;3290;47.716;9.070;2022-09-23T13:23:28;96871.78;;;24.41;46.49
6514;BME280;3290;47.716;9.070;2022-09-23T13:25:59;96866.25;;;23.84;47.76
6514;BME280;3290;47.716;9.070;2022-09-23T13:30:50;96868.13;;;23.57;48.22
6514;BME280;3290;47.716;9.070;2022-09-23T13:33:24;96865.53;;;24.19;48.19
6514;BME280;3290;47.716;9.070;2022-09-23T13:35:55;96851.00;;;24.68;47.86
6514;BME280;3290;47.716;9.070;2022-09-23T13:38:24;96850.88;;;24.03;47.52
6514;BME280;3290;47.716;9.070;2022-09-23T13:40:56;96853.75;;;23.53;48.56
6514;BME280;3290;47.716;9.070;2022-09-23T13:46:08;96843.34;;;23.92;48.47
6514;BME280;3290;47.716;9.070;2022-09-23T13:48:37;96840.75;;;24.00;48.72
6514;BME280;3290;47.716;9.070;2022-09-23T13:51:09;96843.53;;;24.09;48.73
6514;BME280;3290;47.716;9.070;2022-09-23T13:53:35;96837.03;;;23.61;49.31
6514;BME280;3290;47.716;9.070;2022-09-23T13:56:14;96843.53;;;23.15;49.49
6514;BME280;3290;47.716;9.070;2022-09-23T13:58:40;96838.78;;;23.39;50.44
6514;BME280;3290;47.716;9.070;2022-09-23T14:01:21;96829.50;;;24.25;49.26
6514;BME280;3290;47.716;9.070;2022-09-23T14:03:46;96831.16;;;22.88;50.25
6514;BME280;3290;47.716;9.070;2022-09-23T14:06:13;96835.97;;;23.04;49.06
6514;BME280;3290;47.716;9.070;2022-09-23T14:08:44;96836.03;;;22.67;50.59
6514;BME280;3290;47.716;9.070;2022-09-23T14:11:18;96830.03;;;23.20;50.63
6514;BME280;3290;47.716;9.070;2022-09-23T14:13:46;96826.06;;;23.04;49.81
6514;BME280;3290;47.716;9.070;2022-09-23T14:16:13;96830.25;;;23.10;49.97
6514;BME280;3290;47.716;9.070;2022-09-23T14:21:31;96814.03;;;23.47;49.31
6514;BME280;3290;47.716;9.070;2022-09-23T14:26:34;96805.88;;;24.62;48.47
6514;BME280;3290;47.716;9.070;2022-09-23T14:28:59;96809.66;;;23.91;48.21
6514;BME280;3290;47.716;9.070;2022-09-23T14:31:25;96799.25;;;24.24;49.23
6514;BME280;3290;47.716;9.070;2022-09-23T14:33:50;96807.47;;;23.53;50.27
6514;BME280;3290;47.716;9.070;2022-09-23T14:36:17;96805.91;;;23.78;49.38
6514;BME280;3290;47.716;9.070;2022-09-23T14:39:06;96796.19;;;23.42;49.23
6514;BME280;3290;47.716;9.070;2022-09-23T14:41:43;96801.44;;;23.34;50.87
6514;BME280;3290;47.716;9.070;2022-09-23T14:44:20;96801.09;;;22.95;50.54
6514;BME280;3290;47.716;9.070;2022-09-23T14:46:57;96799.88;;;22.88;50.83
6514;BME280;3290;47.716;9.070;2022-09-23T14:49:23;96794.59;;;23.15;51.19
6514;BME280;3290;47.716;9.070;2022-09-23T14:51:53;96791.63;;;23.16;51.16
6514;BME280;3290;47.716;9.070;2022-09-23T14:56:53;96789.31;;;22.65;51.36
6514;BME280;3290;47.716;9.070;2022-09-23T14:59:37;96780.34;;;22.74;51.50
6514;BME280;3290;47.716;9.070;2022-09-23T15:02:30;96787.34;;;22.70;51.78
6514;BME280;3290;47.716;9.070;2022-09-23T15:05:21;96793.16;;;22.91;51.54
6514;BME280;3290;47.716;9.070;2022-09-23T15:07:49;96780.22;;;23.11;51.67
6514;BME280;3290;47.716;9.070;2022-09-23T15:10:27;96782.31;;;22.69;53.05
6514;BME280;3290;47.716;9.070;2022-09-23T15:13:04;96784.78;;;23.10;52.43
6514;BME280;3290;47.716;9.070;2022-09-23T15:15:31;96784.19;;;22.82;53.01
6514;BME280;3290;47.716;9.070;2022-09-23T15:18:05;96780.47;;;22.83;54.30
6514;BME280;3290;47.716;9.070;2022-09-23T15:20:32;96777.22;;;22.86;54.35
6514;BME280;3290;47.716;9.070;2022-09-23T15:22:58;96769.53;;;22.66;54.13
6514;BME280;3290;47.716;9.070;2022-09-23T15:25:26;96781.13;;;22.43;54.69
6514;BME280;3290;47.716;9.070;2022-09-23T15:28:15;96766.19;;;22.42;56.39
6514;BME280;3290;47.716;9.070;2022-09-23T15:30:41;96767.03;;;22.56;55.26
6514;BME280;3290;47.716;9.070;2022-09-23T15:33:11;96761.25;;;22.81;54.44
6514;BME280;3290;47.716;9.070;2022-09-23T15:35:46;96766.84;;;22.66;54.08
6514;BME280;3290;47.716;9.070;2022-09-23T15:38:12;96762.75;;;22.23;56.29
6514;BME280;3290;47.716;9.070;2022-09-23T15:40:38;96756.94;;;22.03;55.88
6514;BME280;3290;47.716;9.070;2022-09-23T15:45:47;96762.63;;;21.97;56.33
6514;BME280;3290;47.716;9.070;2022-09-23T15:48:16;96759.25;;;22.41;55.47
6514;BME280;3290;47.716;9.070;2022-09-23T15:50:43;96760.81;;;22.29;55.35
6514;BME280;3290;47.716;9.070;2022-09-23T15:53:15;96764.88;;;22.26;55.90
6514;BME280;3290;47.716;9.070;2022-09-23T15:55:42;96762.34;;;22.16;56.79
6514;BME280;3290;47.716;9.070;2022-09-23T15:58:08;96763.84;;;21.86;57.86
6514;BME280;3290;47.716;9.070;2022-09-23T16:00:33;96762.06;;;22.18;57.48
6514;BME280;3290;47.716;9.070;2022-09-23T16:03:01;96755.63;;;22.19;57.45
6514;BME280;3290;47.716;9.070;2022-09-23T16:05:30;96757.78;;;21.99;59.02